sensor_id;sensor_type;location;lat;lon;timestamp;P1;durP1;ratioP1;P2;durP2;ratioP2
3843;SDS011;1937;51.444;6.484;2022-08-19T00:02:02;15.43;;;9.97;;
3843;SDS011;1937;51.444;6.484;2022-08-19T00:04:32;10.90;;;8.77;;
3843;SDS011;1937;51.444;6.484;2022-08-19T00:07:02;10.53;;;8.73;;
3843;SDS011;1937;51.444;6.484;2022-08-19T00:09:32;13.37;;;9.83;;
3843;SDS011;1937;51.444;6.484;2022-08-19T00:12:01;13.33;;;8.60;;
3843;SDS011;1937;51.444;6.484;2022-08-19T00:14:30;9.57;;;8.23;;
3843;SDS011;1937;51.444;6.484;2022-08-19T00:16:58;13.10;;;10.10;;
3843;SDS011;1937;51.444;6.484;2022-08-19T00:19:28;10.33;;;8.60;;
3843;SDS011;1937;51.444;6.484;2022-08-19T00:21:57;10.97;;;9.00;;
3843;SDS011;1937;51.444;6.484;2022-08-19T00:24:27;11.90;;;9.90;;
3843;SDS011;1937;51.444;6.484;2022-08-19T00:26:55;12.03;;;10.43;;
3843;SDS011;1937;51.444;6.484;2022-08-19T00:29:28;13.90;;;9.27;;
3843;SDS011;1937;51.444;6.484;2022-08-19T00:31:57;13.47;;;7.63;;
3843;SDS011;1937;51.444;6.484;2022-08-19T00:34:26;11.10;;;9.13;;
3843;SDS011;1937;51.444;6.484;2022-08-19T00:36:54;12.50;;;9.70;;
3843;SDS011;1937;51.444;6.484;2022-08-19T00:39:23;12.60;;;9.17;;
3843;SDS011;1937;51.444;6.484;2022-08-19T00:41:53;9.83;;;8.47;;
3843;SDS011;1937;51.444;6.484;2022-08-19T00:44:23;14.57;;;9.40;;
3843;SDS011;1937;51.444;6.484;2022-08-19T00:46:56;9.97;;;7.93;;
3843;SDS011;1937;51.444;6.484;2022-08-19T00:49:26;10.73;;;7.27;;
3843;SDS011;1937;51.444;6.484;2022-08-19T00:51:59;11.30;;;7.50;;
3843;SDS011;1937;51.444;6.484;2022-08-19T00:54:30;12.97;;;7.10;;
3843;SDS011;1937;51.444;6.484;2022-08-19T00:56:59;15.47;;;10.27;;
3843;SDS011;1937;51.444;6.484;2022-08-19T00:59:32;10.77;;;8.57;;
3843;SDS011;1937;51.444;6.484;2022-08-19T01:02:06;16.37;;;9.80;;
3843;SDS011;1937;51.444;6.484;2022-08-19T01:04:35;12.40;;;9.30;;
3843;SDS011;1937;51.444;6.484;2022-08-19T01:07:04;13.60;;;9.30;;
3843;SDS011;1937;51.444;6.484;2022-08-19T01:09:33;11.87;;;7.50;;
3843;SDS011;1937;51.444;6.484;2022-08-19T01:12:01;11.90;;;8.00;;
3843;SDS011;1937;51.444;6.484;2022-08-19T01:14:30;10.97;;;7.60;;
3843;SDS011;1937;51.444;6.484;2022-08-19T01:16:59;10.27;;;7.07;;
3843;SDS011;1937;51.444;6.484;2022-08-19T01:19:31;10.73;;;7.60;;
3843;SDS011;1937;51.444;6.484;2022-08-19T01:22:05;9.23;;;7.37;;
3843;SDS011;1937;51.444;6.484;2022-08-19T01:24:39;12.00;;;8.90;;
3843;SDS011;1937;51.444;6.484;2022-08-19T01:27:08;10.80;;;9.03;;
3843;SDS011;1937;51.444;6.484;2022-08-19T01:29:38;21.07;;;11.70;;
3843;SDS011;1937;51.444;6.484;2022-08-19T01:32:08;14.63;;;10.50;;
3843;SDS011;1937;51.444;6.484;2022-08-19T01:34:39;11.83;;;9.20;;
3843;SDS011;1937;51.444;6.484;2022-08-19T01:37:12;10.97;;;8.67;;
3843;SDS011;1937;51.444;6.484;2022-08-19T01:39:43;10.83;;;8.53;;
3843;SDS011;1937;51.444;6.484;2022-08-19T01:42:12;14.90;;;9.27;;
3843;SDS011;1937;51.444;6.484;2022-08-19T01:44:40;13.60;;;10.17;;
3843;SDS011;1937;51.444;6.484;2022-08-19T01:47:09;10.70;;;8.30;;
3843;SDS011;1937;51.444;6.484;2022-08-19T01:49:37;15.23;;;10.27;;
3843;SDS011;1937;51.444;6.484;2022-08-19T01:52:05;14.43;;;10.07;;
3843;SDS011;1937;51.444;6.484;2022-08-19T01:54:34;15.97;;;10.07;;
3843;SDS011;1937;51.444;6.484;2022-08-19T01:57:06;15.67;;;10.60;;
3843;SDS011;1937;51.444;6.484;2022-08-19T01:59:38;13.93;;;9.60;;
3843;SDS011;1937;51.444;6.484;2022-08-19T02:02:09;12.07;;;9.27;;
3843;SDS011;1937;51.444;6.484;2022-08-19T02:04:37;15.97;;;11.47;;
3843;SDS011;1937;51.444;6.484;2022-08-19T02:07:06;13.00;;;9.37;;
3843;SDS011;1937;51.444;6.484;2022-08-19T02:09:34;15.80;;;10.90;;
3843;SDS011;1937;51.444;6.484;2022-08-19T02:12:04;11.40;;;8.13;;
3843;SDS011;1937;51.444;6.484;2022-08-19T02:14:34;13.23;;;10.60;;
3843;SDS011;1937;51.444;6.484;2022-08-19T02:17:03;15.90;;;8.73;;
3843;SDS011;1937;51.444;6.484;2022-08-19T02:19:32;15.20;;;9.70;;
3843;SDS011;1937;51.444;6.484;2022-08-19T02:22:00;15.20;;;10.20;;
3843;SDS011;1937;51.444;6.484;2022-08-19T02:24:29;15.20;;;10.30;;
3843;SDS011;1937;51.444;6.484;2022-08-19T02:26:57;14.47;;;10.40;;
3843;SDS011;1937;51.444;6.484;2022-08-19T02:29:27;15.50;;;10.90;;
3843;SDS011;1937;51.444;6.484;2022-08-19T02:31:55;13.83;;;10.07;;
3843;SDS011;1937;51.444;6.484;2022-08-19T02:34:24;15.87;;;11.00;;
3843;SDS011;1937;51.444;6.484;2022-08-19T02:36:53;18.40;;;11.63;;
3843;SDS011;1937;51.444;6.484;2022-08-19T02:39:21;16.07;;;11.17;;
3843;SDS011;1937;51.444;6.484;2022-08-19T02:41:51;17.60;;;12.60;;
3843;SDS011;1937;51.444;6.484;2022-08-19T02:44:20;19.37;;;12.57;;
3843;SDS011;1937;51.444;6.484;2022-08-19T02:46:49;26.83;;;15.60;;
3843;SDS011;1937;51.444;6.484;2022-08-19T02:49:18;21.83;;;14.90;;
3843;SDS011;1937;51.444;6.484;2022-08-19T02:51:46;20.40;;;12.60;;
3843;SDS011;1937;51.444;6.484;2022-08-19T02:54:14;24.80;;;13.87;;
3843;SDS011;1937;51.444;6.484;2022-08-19T02:56:43;21.80;;;14.23;;
3843;SDS011;1937;51.444;6.484;2022-08-19T02:59:12;20.17;;;13.80;;
3843;SDS011;1937;51.444;6.484;2022-08-19T03:01:42;21.07;;;15.30;;
3843;SDS011;1937;51.444;6.484;2022-08-19T03:04:13;24.70;;;16.60;;
3843;SDS011;1937;51.444;6.484;2022-08-19T03:06:43;24.40;;;15.77;;
3843;SDS011;1937;51.444;6.484;2022-08-19T03:09:13;24.93;;;14.77;;
3843;SDS011;1937;51.444;6.484;2022-08-19T03:11:43;27.47;;;17.20;;
3843;SDS011;1937;51.444;6.484;2022-08-19T03:14:12;36.67;;;23.57;;
3843;SDS011;1937;51.444;6.484;2022-08-19T03:16:43;35.60;;;22.47;;
3843;SDS011;1937;51.444;6.484;2022-08-19T03:19:15;29.90;;;18.90;;
3843;SDS011;1937;51.444;6.484;2022-08-19T03:21:46;30.33;;;19.20;;
3843;SDS011;1937;51.444;6.484;2022-08-19T03:24:14;36.20;;;21.30;;
3843;SDS011;1937;51.444;6.484;2022-08-19T03:26:44;38.47;;;25.30;;
3843;SDS011;1937;51.444;6.484;2022-08-19T03:29:14;37.30;;;23.03;;
3843;SDS011;1937;51.444;6.484;2022-08-19T03:31:44;39.77;;;21.60;;
3843;SDS011;1937;51.444;6.484;2022-08-19T03:34:13;40.37;;;25.03;;
3843;SDS011;1937;51.444;6.484;2022-08-19T03:36:43;37.60;;;23.27;;
3843;SDS011;1937;51.444;6.484;2022-08-19T03:39:13;38.77;;;23.63;;
3843;SDS011;1937;51.444;6.484;2022-08-19T03:41:43;39.27;;;23.00;;
3843;SDS011;1937;51.444;6.484;2022-08-19T03:44:14;42.67;;;22.80;;
3843;SDS011;1937;51.444;6.484;2022-08-19T03:46:46;40.70;;;24.07;;
3843;SDS011;1937;51.444;6.484;2022-08-19T03:49:17;36.20;;;22.60;;
3843;SDS011;1937;51.444;6.484;2022-08-19T03:51:48;35.50;;;22.50;;
3843;SDS011;1937;51.444;6.484;2022-08-19T03:54:18;40.57;;;23.13;;
3843;SDS011;1937;51.444;6.484;2022-08-19T03:56:49;47.37;;;26.80;;
3843;SDS011;1937;51.444;6.484;2022-08-19T03:59:20;44.37;;;28.00;;
3843;SDS011;1937;51.444;6.484;2022-08-19T04:01:51;43.40;;;24.10;;
3843;SDS011;1937;51.444;6.484;2022-08-19T04:04:22;43.07;;;24.43;;
3843;SDS011;1937;51.444;6.484;2022-08-19T04:06:51;45.03;;;26.37;;
3843;SDS011;1937;51.444;6.484;2022-08-19T04:09:20;35.50;;;22.10;;
3843;SDS011;1937;51.444;6.484;2022-08-19T04:11:50;34.53;;;22.40;;
3843;SDS011;1937;51.444;6.484;2022-08-19T04:14:22;43.03;;;25.20;;
3843;SDS011;1937;51.444;6.484;2022-08-19T04:16:55;46.40;;;26.37;;
3843;SDS011;1937;51.444;6.484;2022-08-19T04:19:25;45.10;;;28.30;;
3843;SDS011;1937;51.444;6.484;2022-08-19T04:21:55;49.67;;;27.60;;
3843;SDS011;1937;51.444;6.484;2022-08-19T04:24:23;33.10;;;20.30;;
3843;SDS011;1937;51.444;6.484;2022-08-19T04:26:52;36.30;;;21.60;;
3843;SDS011;1937;51.444;6.484;2022-08-19T04:29:23;38.50;;;23.43;;
3843;SDS011;1937;51.444;6.484;2022-08-19T04:31:52;39.23;;;22.13;;
3843;SDS011;1937;51.444;6.484;2022-08-19T04:34:23;34.83;;;22.00;;
3843;SDS011;1937;51.444;6.484;2022-08-19T04:36:55;43.10;;;23.70;;
3843;SDS011;1937;51.444;6.484;2022-08-19T04:39:25;44.70;;;25.37;;
3843;SDS011;1937;51.444;6.484;2022-08-19T04:42:10;50.60;;;29.57;;
3843;SDS011;1937;51.444;6.484;2022-08-19T04:44:57;44.47;;;27.27;;
3843;SDS011;1937;51.444;6.484;2022-08-19T04:47:29;48.53;;;30.00;;
3843;SDS011;1937;51.444;6.484;2022-08-19T04:49:58;63.93;;;34.77;;
3843;SDS011;1937;51.444;6.484;2022-08-19T04:52:28;65.47;;;37.63;;
3843;SDS011;1937;51.444;6.484;2022-08-19T04:54:57;73.17;;;38.93;;
3843;SDS011;1937;51.444;6.484;2022-08-19T04:57:26;64.27;;;39.00;;
3843;SDS011;1937;51.444;6.484;2022-08-19T04:59:55;74.27;;;40.03;;
3843;SDS011;1937;51.444;6.484;2022-08-19T05:02:24;72.90;;;37.57;;
3843;SDS011;1937;51.444;6.484;2022-08-19T05:04:56;64.80;;;38.80;;
3843;SDS011;1937;51.444;6.484;2022-08-19T05:07:27;61.87;;;36.80;;
3843;SDS011;1937;51.444;6.484;2022-08-19T05:09:56;68.50;;;40.20;;
3843;SDS011;1937;51.444;6.484;2022-08-19T05:12:25;73.23;;;39.90;;
3843;SDS011;1937;51.444;6.484;2022-08-19T05:14:53;71.00;;;40.57;;
3843;SDS011;1937;51.444;6.484;2022-08-19T05:17:22;68.30;;;38.50;;
3843;SDS011;1937;51.444;6.484;2022-08-19T05:19:51;62.67;;;36.73;;
3843;SDS011;1937;51.444;6.484;2022-08-19T05:22:39;69.07;;;40.20;;
3843;SDS011;1937;51.444;6.484;2022-08-19T05:25:11;74.60;;;41.27;;
3843;SDS011;1937;51.444;6.484;2022-08-19T05:27:43;68.70;;;38.93;;
3843;SDS011;1937;51.444;6.484;2022-08-19T05:30:13;81.40;;;43.33;;
3843;SDS011;1937;51.444;6.484;2022-08-19T05:32:42;92.67;;;47.27;;
3843;SDS011;1937;51.444;6.484;2022-08-19T05:35:11;80.10;;;41.40;;
3843;SDS011;1937;51.444;6.484;2022-08-19T05:37:40;69.60;;;40.17;;
3843;SDS011;1937;51.444;6.484;2022-08-19T05:40:09;73.20;;;42.07;;
3843;SDS011;1937;51.444;6.484;2022-08-19T05:42:38;71.77;;;41.30;;
3843;SDS011;1937;51.444;6.484;2022-08-19T05:45:06;74.23;;;42.53;;
3843;SDS011;1937;51.444;6.484;2022-08-19T05:47:36;81.17;;;43.67;;
3843;SDS011;1937;51.444;6.484;2022-08-19T05:50:04;78.53;;;42.13;;
3843;SDS011;1937;51.444;6.484;2022-08-19T05:52:34;69.60;;;41.37;;
3843;SDS011;1937;51.444;6.484;2022-08-19T05:55:06;68.57;;;38.23;;
3843;SDS011;1937;51.444;6.484;2022-08-19T05:57:36;72.43;;;41.30;;
3843;SDS011;1937;51.444;6.484;2022-08-19T06:00:05;74.80;;;40.13;;
3843;SDS011;1937;51.444;6.484;2022-08-19T06:02:35;70.50;;;41.00;;
3843;SDS011;1937;51.444;6.484;2022-08-19T06:05:06;65.80;;;37.60;;
3843;SDS011;1937;51.444;6.484;2022-08-19T06:07:35;74.17;;;40.30;;
3843;SDS011;1937;51.444;6.484;2022-08-19T06:10:08;70.43;;;41.60;;
3843;SDS011;1937;51.444;6.484;2022-08-19T06:12:38;69.40;;;38.20;;
3843;SDS011;1937;51.444;6.484;2022-08-19T06:15:07;68.70;;;36.93;;
3843;SDS011;1937;51.444;6.484;2022-08-19T06:17:38;72.47;;;38.97;;
3843;SDS011;1937;51.444;6.484;2022-08-19T06:20:10;74.70;;;38.70;;
3843;SDS011;1937;51.444;6.484;2022-08-19T06:22:43;66.23;;;39.00;;
3843;SDS011;1937;51.444;6.484;2022-08-19T06:25:16;66.33;;;37.57;;
3843;SDS011;1937;51.444;6.484;2022-08-19T06:27:45;60.00;;;35.70;;
3843;SDS011;1937;51.444;6.484;2022-08-19T06:30:13;70.33;;;38.10;;
3843;SDS011;1937;51.444;6.484;2022-08-19T06:32:42;62.37;;;35.73;;
3843;SDS011;1937;51.444;6.484;2022-08-19T06:35:11;58.10;;;31.97;;
3843;SDS011;1937;51.444;6.484;2022-08-19T06:37:39;59.10;;;34.73;;
3843;SDS011;1937;51.444;6.484;2022-08-19T06:40:09;63.07;;;35.57;;
3843;SDS011;1937;51.444;6.484;2022-08-19T06:42:40;59.97;;;32.10;;
3843;SDS011;1937;51.444;6.484;2022-08-19T06:45:08;59.63;;;31.90;;
3843;SDS011;1937;51.444;6.484;2022-08-19T06:47:38;56.17;;;32.50;;
3843;SDS011;1937;51.444;6.484;2022-08-19T06:50:08;59.00;;;31.53;;
3843;SDS011;1937;51.444;6.484;2022-08-19T06:52:37;56.87;;;29.90;;
3843;SDS011;1937;51.444;6.484;2022-08-19T06:55:06;53.47;;;29.93;;
3843;SDS011;1937;51.444;6.484;2022-08-19T06:57:35;49.07;;;27.90;;
3843;SDS011;1937;51.444;6.484;2022-08-19T07:00:05;51.90;;;27.67;;
3843;SDS011;1937;51.444;6.484;2022-08-19T07:02:38;48.50;;;27.50;;
3843;SDS011;1937;51.444;6.484;2022-08-19T07:05:08;48.43;;;27.67;;
3843;SDS011;1937;51.444;6.484;2022-08-19T07:07:36;57.80;;;25.90;;
3843;SDS011;1937;51.444;6.484;2022-08-19T07:10:08;40.80;;;26.27;;
3843;SDS011;1937;51.444;6.484;2022-08-19T07:12:37;43.93;;;25.17;;
3843;SDS011;1937;51.444;6.484;2022-08-19T07:15:08;44.90;;;27.30;;
3843;SDS011;1937;51.444;6.484;2022-08-19T07:17:37;46.73;;;28.13;;
3843;SDS011;1937;51.444;6.484;2022-08-19T07:20:08;62.97;;;34.30;;
3843;SDS011;1937;51.444;6.484;2022-08-19T07:22:39;63.87;;;34.47;;
3843;SDS011;1937;51.444;6.484;2022-08-19T07:25:09;65.70;;;35.57;;
3843;SDS011;1937;51.444;6.484;2022-08-19T07:27:39;62.47;;;35.73;;
3843;SDS011;1937;51.444;6.484;2022-08-19T07:30:12;71.93;;;36.87;;
3843;SDS011;1937;51.444;6.484;2022-08-19T07:32:41;73.53;;;36.43;;
3843;SDS011;1937;51.444;6.484;2022-08-19T07:35:10;67.30;;;35.80;;
3843;SDS011;1937;51.444;6.484;2022-08-19T07:37:38;68.90;;;38.10;;
3843;SDS011;1937;51.444;6.484;2022-08-19T07:40:09;67.87;;;36.47;;
3843;SDS011;1937;51.444;6.484;2022-08-19T07:42:38;72.40;;;38.43;;
3843;SDS011;1937;51.444;6.484;2022-08-19T07:45:08;67.17;;;35.77;;
3843;SDS011;1937;51.444;6.484;2022-08-19T07:47:37;67.07;;;37.70;;
3843;SDS011;1937;51.444;6.484;2022-08-19T07:50:06;67.83;;;37.67;;
3843;SDS011;1937;51.444;6.484;2022-08-19T07:52:37;69.93;;;37.50;;
3843;SDS011;1937;51.444;6.484;2022-08-19T07:55:09;67.30;;;36.97;;
3843;SDS011;1937;51.444;6.484;2022-08-19T07:57:38;70.80;;;39.33;;
3843;SDS011;1937;51.444;6.484;2022-08-19T08:00:07;66.00;;;36.37;;
3843;SDS011;1937;51.444;6.484;2022-08-19T08:02:38;59.17;;;34.20;;
3843;SDS011;1937;51.444;6.484;2022-08-19T08:05:07;66.10;;;35.90;;
3843;SDS011;1937;51.444;6.484;2022-08-19T08:07:53;58.07;;;33.93;;
3843;SDS011;1937;51.444;6.484;2022-08-19T08:10:39;57.53;;;32.83;;
3843;SDS011;1937;51.444;6.484;2022-08-19T08:13:09;66.23;;;36.13;;
3843;SDS011;1937;51.444;6.484;2022-08-19T08:15:38;60.37;;;31.40;;
3843;SDS011;1937;51.444;6.484;2022-08-19T08:18:10;56.00;;;31.27;;
3843;SDS011;1937;51.444;6.484;2022-08-19T08:20:42;54.10;;;30.33;;
3843;SDS011;1937;51.444;6.484;2022-08-19T08:23:10;55.27;;;32.20;;
3843;SDS011;1937;51.444;6.484;2022-08-19T08:25:50;62.40;;;33.30;;
3843;SDS011;1937;51.444;6.484;2022-08-19T08:28:21;60.00;;;35.97;;
3843;SDS011;1937;51.444;6.484;2022-08-19T08:30:50;50.97;;;32.93;;
3843;SDS011;1937;51.444;6.484;2022-08-19T08:33:21;52.60;;;31.00;;
3843;SDS011;1937;51.444;6.484;2022-08-19T08:35:51;55.90;;;31.40;;
3843;SDS011;1937;51.444;6.484;2022-08-19T08:38:19;60.40;;;31.60;;
3843;SDS011;1937;51.444;6.484;2022-08-19T08:40:49;48.70;;;30.50;;
3843;SDS011;1937;51.444;6.484;2022-08-19T08:43:24;58.13;;;32.83;;
3843;SDS011;1937;51.444;6.484;2022-08-19T08:45:59;47.53;;;29.23;;
3843;SDS011;1937;51.444;6.484;2022-08-19T08:48:35;48.83;;;30.17;;
3843;SDS011;1937;51.444;6.484;2022-08-19T08:51:09;51.50;;;27.87;;
3843;SDS011;1937;51.444;6.484;2022-08-19T08:53:40;46.07;;;28.40;;
3843;SDS011;1937;51.444;6.484;2022-08-19T08:56:12;44.80;;;26.90;;
3843;SDS011;1937;51.444;6.484;2022-08-19T08:58:43;43.30;;;26.83;;
3843;SDS011;1937;51.444;6.484;2022-08-19T09:01:20;42.30;;;23.90;;
3843;SDS011;1937;51.444;6.484;2022-08-19T09:03:50;38.80;;;23.63;;
3843;SDS011;1937;51.444;6.484;2022-08-19T09:06:21;41.87;;;25.60;;
3843;SDS011;1937;51.444;6.484;2022-08-19T09:08:59;45.00;;;26.47;;
3843;SDS011;1937;51.444;6.484;2022-08-19T09:11:35;44.73;;;26.57;;
3843;SDS011;1937;51.444;6.484;2022-08-19T09:14:15;46.13;;;28.17;;
3843;SDS011;1937;51.444;6.484;2022-08-19T09:16:56;43.20;;;26.50;;
3843;SDS011;1937;51.444;6.484;2022-08-19T09:19:29;30.63;;;20.13;;
3843;SDS011;1937;51.444;6.484;2022-08-19T09:21:59;34.20;;;21.90;;
3843;SDS011;1937;51.444;6.484;2022-08-19T09:24:28;27.70;;;18.27;;
3843;SDS011;1937;51.444;6.484;2022-08-19T09:26:56;31.93;;;20.20;;
3843;SDS011;1937;51.444;6.484;2022-08-19T09:29:25;34.03;;;21.77;;
3843;SDS011;1937;51.444;6.484;2022-08-19T09:31:55;46.83;;;27.50;;
3843;SDS011;1937;51.444;6.484;2022-08-19T09:34:23;42.50;;;25.60;;
3843;SDS011;1937;51.444;6.484;2022-08-19T09:36:55;36.00;;;23.87;;
3843;SDS011;1937;51.444;6.484;2022-08-19T09:39:25;34.87;;;22.97;;
3843;SDS011;1937;51.444;6.484;2022-08-19T09:41:53;31.70;;;20.47;;
3843;SDS011;1937;51.444;6.484;2022-08-19T09:44:21;33.23;;;20.47;;
3843;SDS011;1937;51.444;6.484;2022-08-19T09:46:50;27.50;;;19.57;;
3843;SDS011;1937;51.444;6.484;2022-08-19T09:49:19;33.23;;;19.30;;
3843;SDS011;1937;51.444;6.484;2022-08-19T09:51:49;30.57;;;18.77;;
3843;SDS011;1937;51.444;6.484;2022-08-19T09:54:22;32.43;;;19.00;;
3843;SDS011;1937;51.444;6.484;2022-08-19T09:56:51;26.87;;;17.77;;
3843;SDS011;1937;51.444;6.484;2022-08-19T09:59:21;29.50;;;17.40;;
3843;SDS011;1937;51.444;6.484;2022-08-19T10:01:50;28.40;;;18.90;;
3843;SDS011;1937;51.444;6.484;2022-08-19T10:04:18;23.70;;;15.73;;
3843;SDS011;1937;51.444;6.484;2022-08-19T10:06:47;22.33;;;15.30;;
3843;SDS011;1937;51.444;6.484;2022-08-19T10:09:16;20.87;;;14.60;;
3843;SDS011;1937;51.444;6.484;2022-08-19T10:11:47;23.70;;;14.47;;
3843;SDS011;1937;51.444;6.484;2022-08-19T10:14:16;23.10;;;15.77;;
3843;SDS011;1937;51.444;6.484;2022-08-19T10:16:47;24.97;;;15.93;;
3843;SDS011;1937;51.444;6.484;2022-08-19T10:19:16;22.20;;;15.13;;
3843;SDS011;1937;51.444;6.484;2022-08-19T10:21:46;21.77;;;13.83;;
3843;SDS011;1937;51.444;6.484;2022-08-19T10:24:14;19.93;;;12.63;;
3843;SDS011;1937;51.444;6.484;2022-08-19T10:26:42;21.37;;;14.97;;
3843;SDS011;1937;51.444;6.484;2022-08-19T10:29:14;25.50;;;15.83;;
3843;SDS011;1937;51.444;6.484;2022-08-19T10:31:42;18.93;;;14.20;;
3843;SDS011;1937;51.444;6.484;2022-08-19T10:34:13;25.00;;;17.23;;
3843;SDS011;1937;51.444;6.484;2022-08-19T10:36:42;24.97;;;15.07;;
3843;SDS011;1937;51.444;6.484;2022-08-19T10:39:13;18.97;;;12.93;;
3843;SDS011;1937;51.444;6.484;2022-08-19T10:41:41;21.07;;;13.93;;
3843;SDS011;1937;51.444;6.484;2022-08-19T10:44:10;16.80;;;11.87;;
3843;SDS011;1937;51.444;6.484;2022-08-19T10:46:42;16.20;;;11.33;;
3843;SDS011;1937;51.444;6.484;2022-08-19T10:49:12;21.83;;;13.67;;
3843;SDS011;1937;51.444;6.484;2022-08-19T10:51:41;21.00;;;13.80;;
3843;SDS011;1937;51.444;6.484;2022-08-19T10:54:27;16.87;;;11.00;;
3843;SDS011;1937;51.444;6.484;2022-08-19T10:57:09;15.33;;;10.43;;
3843;SDS011;1937;51.444;6.484;2022-08-19T10:59:38;18.17;;;13.00;;
3843;SDS011;1937;51.444;6.484;2022-08-19T11:02:08;15.03;;;12.57;;
3843;SDS011;1937;51.444;6.484;2022-08-19T11:04:38;18.60;;;12.47;;
3843;SDS011;1937;51.444;6.484;2022-08-19T11:07:07;15.30;;;11.60;;
3843;SDS011;1937;51.444;6.484;2022-08-19T11:09:37;17.30;;;10.73;;
3843;SDS011;1937;51.444;6.484;2022-08-19T11:12:07;13.53;;;10.50;;
3843;SDS011;1937;51.444;6.484;2022-08-19T11:14:37;14.13;;;9.80;;
3843;SDS011;1937;51.444;6.484;2022-08-19T11:17:07;16.10;;;9.73;;
3843;SDS011;1937;51.444;6.484;2022-08-19T11:19:37;14.27;;;9.80;;
3843;SDS011;1937;51.444;6.484;2022-08-19T11:22:07;17.50;;;10.47;;
3843;SDS011;1937;51.444;6.484;2022-08-19T11:24:37;14.37;;;9.20;;
3843;SDS011;1937;51.444;6.484;2022-08-19T11:27:06;18.40;;;9.30;;
3843;SDS011;1937;51.444;6.484;2022-08-19T11:29:37;16.43;;;8.17;;
3843;SDS011;1937;51.444;6.484;2022-08-19T11:32:09;9.70;;;6.90;;
3843;SDS011;1937;51.444;6.484;2022-08-19T11:34:38;10.10;;;6.73;;
3843;SDS011;1937;51.444;6.484;2022-08-19T11:37:07;9.63;;;6.90;;
3843;SDS011;1937;51.444;6.484;2022-08-19T11:39:36;11.40;;;8.40;;
3843;SDS011;1937;51.444;6.484;2022-08-19T11:42:05;8.63;;;6.57;;
3843;SDS011;1937;51.444;6.484;2022-08-19T11:44:47;9.47;;;7.37;;
3843;SDS011;1937;51.444;6.484;2022-08-19T11:47:17;16.50;;;5.87;;
3843;SDS011;1937;51.444;6.484;2022-08-19T11:49:47;10.10;;;6.63;;
3843;SDS011;1937;51.444;6.484;2022-08-19T11:52:15;8.60;;;6.37;;
3843;SDS011;1937;51.444;6.484;2022-08-19T11:54:43;7.40;;;5.90;;
3843;SDS011;1937;51.444;6.484;2022-08-19T11:57:11;11.00;;;7.07;;
3843;SDS011;1937;51.444;6.484;2022-08-19T11:59:41;5.77;;;4.50;;
3843;SDS011;1937;51.444;6.484;2022-08-19T12:02:13;7.93;;;4.70;;
3843;SDS011;1937;51.444;6.484;2022-08-19T12:04:43;7.27;;;5.03;;
3843;SDS011;1937;51.444;6.484;2022-08-19T12:07:12;7.30;;;5.30;;
3843;SDS011;1937;51.444;6.484;2022-08-19T12:09:40;6.90;;;6.07;;
3843;SDS011;1937;51.444;6.484;2022-08-19T12:12:09;7.20;;;5.10;;
3843;SDS011;1937;51.444;6.484;2022-08-19T12:14:38;11.37;;;7.50;;
3843;SDS011;1937;51.444;6.484;2022-08-19T12:17:06;7.73;;;5.37;;
3843;SDS011;1937;51.444;6.484;2022-08-19T12:19:36;10.70;;;6.10;;
3843;SDS011;1937;51.444;6.484;2022-08-19T12:22:06;8.97;;;6.40;;
3843;SDS011;1937;51.444;6.484;2022-08-19T12:24:34;8.80;;;5.60;;
3843;SDS011;1937;51.444;6.484;2022-08-19T12:27:03;10.37;;;5.90;;
3843;SDS011;1937;51.444;6.484;2022-08-19T12:29:32;6.40;;;5.40;;
3843;SDS011;1937;51.444;6.484;2022-08-19T12:32:01;9.60;;;6.27;;
3843;SDS011;1937;51.444;6.484;2022-08-19T12:34:30;7.40;;;5.60;;
3843;SDS011;1937;51.444;6.484;2022-08-19T12:37:02;8.20;;;5.57;;
3843;SDS011;1937;51.444;6.484;2022-08-19T12:39:35;6.27;;;5.50;;
3843;SDS011;1937;51.444;6.484;2022-08-19T12:42:03;7.50;;;5.20;;
3843;SDS011;1937;51.444;6.484;2022-08-19T12:44:34;11.13;;;7.60;;
3843;SDS011;1937;51.444;6.484;2022-08-19T12:47:04;10.50;;;6.43;;
3843;SDS011;1937;51.444;6.484;2022-08-19T12:49:35;10.37;;;5.80;;
3843;SDS011;1937;51.444;6.484;2022-08-19T12:52:04;6.93;;;6.20;;
3843;SDS011;1937;51.444;6.484;2022-08-19T12:54:35;8.03;;;6.50;;
3843;SDS011;1937;51.444;6.484;2022-08-19T12:57:05;10.53;;;6.50;;
3843;SDS011;1937;51.444;6.484;2022-08-19T12:59:34;8.77;;;5.60;;
3843;SDS011;1937;51.444;6.484;2022-08-19T13:02:04;7.17;;;6.47;;
3843;SDS011;1937;51.444;6.484;2022-08-19T13:04:34;6.67;;;5.97;;
3843;SDS011;1937;51.444;6.484;2022-08-19T13:07:05;5.50;;;5.00;;
3843;SDS011;1937;51.444;6.484;2022-08-19T13:09:36;7.47;;;6.57;;
3843;SDS011;1937;51.444;6.484;2022-08-19T13:12:06;9.00;;;8.10;;
3843;SDS011;1937;51.444;6.484;2022-08-19T13:14:39;11.67;;;9.03;;
3843;SDS011;1937;51.444;6.484;2022-08-19T13:17:11;7.93;;;6.47;;
3843;SDS011;1937;51.444;6.484;2022-08-19T13:19:40;6.40;;;5.80;;
3843;SDS011;1937;51.444;6.484;2022-08-19T13:22:15;8.27;;;6.60;;
3843;SDS011;1937;51.444;6.484;2022-08-19T13:24:45;10.60;;;6.30;;
3843;SDS011;1937;51.444;6.484;2022-08-19T13:27:13;7.17;;;6.33;;
3843;SDS011;1937;51.444;6.484;2022-08-19T13:29:42;10.03;;;6.97;;
3843;SDS011;1937;51.444;6.484;2022-08-19T13:32:28;8.10;;;7.30;;
3843;SDS011;1937;51.444;6.484;2022-08-19T13:35:14;7.10;;;6.40;;
3843;SDS011;1937;51.444;6.484;2022-08-19T13:37:43;9.10;;;6.47;;
3843;SDS011;1937;51.444;6.484;2022-08-19T13:40:14;7.53;;;6.83;;
3843;SDS011;1937;51.444;6.484;2022-08-19T13:42:49;9.30;;;5.70;;
3843;SDS011;1937;51.444;6.484;2022-08-19T13:45:20;8.17;;;5.50;;
3843;SDS011;1937;51.444;6.484;2022-08-19T13:47:51;7.57;;;4.93;;
3843;SDS011;1937;51.444;6.484;2022-08-19T13:50:22;6.70;;;4.63;;
3843;SDS011;1937;51.444;6.484;2022-08-19T13:52:52;7.10;;;5.40;;
3843;SDS011;1937;51.444;6.484;2022-08-19T13:55:23;8.60;;;5.30;;
3843;SDS011;1937;51.444;6.484;2022-08-19T13:57:53;7.90;;;5.30;;
3843;SDS011;1937;51.444;6.484;2022-08-19T14:00:23;6.90;;;5.63;;
3843;SDS011;1937;51.444;6.484;2022-08-19T14:02:54;7.00;;;5.53;;
3843;SDS011;1937;51.444;6.484;2022-08-19T14:05:24;8.33;;;5.43;;
3843;SDS011;1937;51.444;6.484;2022-08-19T14:07:53;6.10;;;5.30;;
3843;SDS011;1937;51.444;6.484;2022-08-19T14:10:24;7.37;;;4.63;;
3843;SDS011;1937;51.444;6.484;2022-08-19T14:12:53;6.53;;;4.47;;
3843;SDS011;1937;51.444;6.484;2022-08-19T14:15:24;7.80;;;5.13;;
3843;SDS011;1937;51.444;6.484;2022-08-19T14:17:53;7.87;;;4.97;;
3843;SDS011;1937;51.444;6.484;2022-08-19T14:20:22;9.03;;;6.60;;
3843;SDS011;1937;51.444;6.484;2022-08-19T14:22:52;8.93;;;6.87;;
3843;SDS011;1937;51.444;6.484;2022-08-19T14:25:22;8.73;;;5.50;;
3843;SDS011;1937;51.444;6.484;2022-08-19T14:27:52;8.60;;;5.10;;
3843;SDS011;1937;51.444;6.484;2022-08-19T14:30:24;9.40;;;4.73;;
3843;SDS011;1937;51.444;6.484;2022-08-19T14:32:53;8.87;;;4.57;;
3843;SDS011;1937;51.444;6.484;2022-08-19T14:35:24;9.00;;;5.60;;
3843;SDS011;1937;51.444;6.484;2022-08-19T14:37:54;6.83;;;5.50;;
3843;SDS011;1937;51.444;6.484;2022-08-19T14:40:23;9.97;;;5.63;;
3843;SDS011;1937;51.444;6.484;2022-08-19T14:42:53;10.30;;;7.20;;
3843;SDS011;1937;51.444;6.484;2022-08-19T14:45:25;10.97;;;5.50;;
3843;SDS011;1937;51.444;6.484;2022-08-19T14:47:54;7.20;;;5.73;;
3843;SDS011;1937;51.444;6.484;2022-08-19T14:50:24;9.63;;;7.90;;
3843;SDS011;1937;51.444;6.484;2022-08-19T14:52:57;11.23;;;7.73;;
3843;SDS011;1937;51.444;6.484;2022-08-19T14:55:30;11.63;;;7.67;;
3843;SDS011;1937;51.444;6.484;2022-08-19T14:57:59;23.00;;;12.50;;
3843;SDS011;1937;51.444;6.484;2022-08-19T15:00:28;45.33;;;32.03;;
3843;SDS011;1937;51.444;6.484;2022-08-19T15:02:57;15.30;;;10.73;;
3843;SDS011;1937;51.444;6.484;2022-08-19T15:05:25;14.47;;;9.87;;
3843;SDS011;1937;51.444;6.484;2022-08-19T15:07:53;20.23;;;11.60;;
3843;SDS011;1937;51.444;6.484;2022-08-19T15:10:22;17.70;;;10.50;;
3843;SDS011;1937;51.444;6.484;2022-08-19T15:12:52;16.47;;;11.23;;
3843;SDS011;1937;51.444;6.484;2022-08-19T15:15:20;17.93;;;11.30;;